Pagrindinis puslapis
METAR-TAF:

METAR-TAF

Oro uostai :

Šidzuoka, Japonija

platuma: 34-47-46N, ilguma: 138-11-22E, Aukštis: 132 m

Dabartinis oras

Ataskaita buvo paskelbta 17 minutes, ne 04:00 UTC
Vėjas 9 kt iš Vakarų/Pietvakarių, svyruoja nuo Pietų/Pietvakarių ir Vakarų
Temperatūra 12°C
Drėgmė 35%
Slėgis 1025 hPa
Matomumas 10 km arba daugiau
Mažai debesys ne aukštis 2500 ft
Išsisklaidę debesys ne aukštis 15000 ft
Su prošvaistėmis

METAR: RJNS 200400Z 24009KT 200V280 9999 FEW025 SCT150 BKN/// 12/M03 Q1025

Laikas: 13:17 (04:17 UTC)

Prognozė

Ataskaita buvo paskelbta 5 valandos ir 12 minutes, ne 23:05 UTC
Prognozė galioja nuo 20 metu 00 UTC su 21 metu 06 UTC
Vėjas 4 kt iš Rytų/Pietryčių
Matomumas 10 km arba daugiau
Mažai debesys ne aukštis 3000 ft
Tapsmas
nuo 20 metu 02 UTC su 20 metu 04 UTC
Vėjas 8 kt iš Vakarų/Pietvakarių
Tapsmas
nuo 20 metu 21 UTC su 21 metu 00 UTC
Vėjas 5 kt iš Rytų/Šiaurės Rytų

TAF: RJNS 192305Z 2000/2106 12004KT 9999 FEW030 BECMG 2002/2004 24008KT BECMG 2021/2100 06005KT

Orai ataskaitas ir orų prognozės (METAR, TAF).

turimą stotys yra geltonos ir raudonos taškus žemėlapyje.

Perkelti pele per norėdami pamatyti stoties vardą.

Tada spustelėkite, norėdami matyti oro stebėjimo ir prognozės.

Norėdami pakeisti žemėlapį: spustelėkite ant žalios mygtukų su juodo kryžiaus žemyn,; žalią mygtuką su brūkšneliu, jei norite nutolinti; arba žalių rodyklių gretimoms žemėlapius.


METAR-TAF: